Time;durP1;ratioP1;P1;durP2;ratioP2;P2;SDS_P1;SDS_P2;PMS_P1;PMS_P2;Temp;Humidity;BMP_temperature;BMP_pressure;BME280_temperature;BME280_humidity;BME280_pressure;Samples;Min_cycle;Max_cycle;Signal;HPM_P1;HPM_P2
2023/02/10 00:02:24;;;;;;;47.90;25.02;;;-4.30;94.70;;;;;;5040350;28;20030;-65
2023/02/10 00:04:53;;;;;;;55.75;25.50;;;-4.30;95.30;;;;;;5054009;28;20026;-66
2023/02/10 00:07:18;;;;;;;45.55;24.05;;;-4.30;96.50;;;;;;5045030;28;20445;-65
2023/02/10 00:09:44;;;;;;;51.15;25.30;;;-4.30;95.60;;;;;;5051293;28;20102;-64
2023/02/10 00:12:12;;;;;;;51.92;25.95;;;-4.30;95.80;;;;;;5041391;28;20026;-65
2023/02/10 00:14:37;;;;;;;47.28;23.88;;;-4.40;95.70;;;;;;5051444;28;20032;-66
2023/02/10 00:17:03;;;;;;;46.95;25.20;;;-4.50;95.70;;;;;;5049575;28;20025;-66
2023/02/10 00:19:30;;;;;;;58.08;26.02;;;-4.60;95.40;;;;;;5041179;28;20025;-66
2023/02/10 00:21:57;;;;;;;51.95;26.42;;;-4.70;95.30;;;;;;5049538;28;20361;-66
2023/02/10 00:24:23;;;;;;;53.80;27.23;;;-4.80;95.10;;;;;;5038272;28;20021;-65
2023/02/10 00:26:49;;;;;;;50.13;24.38;;;-5.00;95.00;;;;;;5039571;28;20029;-65
2023/02/10 00:29:16;;;;;;;50.53;26.30;;;-5.10;93.80;;;;;;5051903;28;20036;-66
2023/02/10 00:31:43;;;;;;;54.35;26.50;;;-5.10;94.20;;;;;;5036402;28;20029;-65
2023/02/10 00:34:14;;;;;;;56.83;27.45;;;-5.20;93.90;;;;;;5038819;28;20073;-65
2023/02/10 00:36:39;;;;;;;56.58;27.63;;;-5.20;93.20;;;;;;5039903;28;20032;-65
2023/02/10 00:39:05;;;;;;;51.92;26.05;;;-5.20;92.10;;;;;;5033935;28;20025;-66
2023/02/10 00:41:31;;;;;;;53.40;28.02;;;-5.00;91.50;;;;;;5036782;28;20033;-65
2023/02/10 00:43:56;;;;;;;59.53;28.10;;;-4.90;91.30;;;;;;5041492;28;20025;-65
2023/02/10 00:46:25;;;;;;;60.08;29.17;;;-4.80;91.40;;;;;;5040046;28;20033;-65
2023/02/10 00:48:50;;;;;;;61.97;29.08;;;-4.80;92.20;;;;;;5040870;28;20030;-65
2023/02/10 00:51:17;;;;;;;57.88;28.58;;;-4.90;91.60;;;;;;5041972;28;20037;-65
2023/02/10 00:53:43;;;;;;;50.95;26.27;;;-4.90;92.80;;;;;;5036001;28;20036;-65
2023/02/10 00:56:10;;;;;;;57.33;28.40;;;-4.90;92.00;;;;;;5039405;28;20034;-65
2023/02/10 00:58:36;;;;;;;56.95;27.52;;;-4.80;92.80;;;;;;5043806;28;20318;-65
2023/02/10 01:01:02;;;;;;;62.85;28.83;;;-5.00;93.40;;;;;;5036856;28;20030;-65
2023/02/10 01:03:28;;;;;;;55.13;28.10;;;-4.90;92.10;;;;;;5042893;28;20024;-66
2023/02/10 01:05:53;;;;;;;59.75;29.35;;;-4.80;91.70;;;;;;5036999;28;20038;-65
2023/02/10 01:08:22;;;;;;;57.88;28.77;;;-4.70;91.50;;;;;;5032580;28;20033;-65
2023/02/10 01:10:48;;;;;;;65.05;30.90;;;-4.60;91.60;;;;;;5034206;28;20025;-65
2023/02/10 01:13:14;;;;;;;58.28;29.50;;;-4.40;92.50;;;;;;5036733;28;20168;-66
2023/02/10 01:15:45;;;;;;;60.78;29.60;;;-4.40;94.10;;;;;;5036649;28;20086;-66
2023/02/10 01:18:10;;;;;;;53.72;27.45;;;-4.60;94.30;;;;;;5041549;28;20025;-65
2023/02/10 01:20:41;;;;;;;62.92;29.48;;;-4.60;93.70;;;;;;5034656;28;20041;-64
2023/02/10 01:23:07;;;;;;;58.65;29.45;;;-4.50;94.10;;;;;;5038490;28;20029;-64
2023/02/10 01:25:34;;;;;;;55.53;28.20;;;-4.60;93.40;;;;;;5048026;28;20116;-64
2023/02/10 01:28:00;;;;;;;62.97;30.02;;;-4.60;93.50;;;;;;5037644;28;20029;-65
2023/02/10 01:30:25;;;;;;;59.03;28.90;;;-4.70;93.90;;;;;;5039284;28;20440;-67
2023/02/10 01:32:55;;;;;;;65.70;30.55;;;-4.70;93.00;;;;;;5038700;28;20112;-65
2023/02/10 01:35:21;;;;;;;56.97;29.88;;;-4.70;92.90;;;;;;5037084;28;20032;-66
2023/02/10 01:37:47;;;;;;;61.80;29.95;;;-4.70;93.00;;;;;;5034208;28;20094;-66
2023/02/10 01:40:16;;;;;;;56.15;29.67;;;-4.70;92.60;;;;;;5035296;28;20104;-66
2023/02/10 01:42:42;;;;;;;60.22;32.10;;;-4.60;92.80;;;;;;5046918;28;20091;-66
2023/02/10 01:45:13;;;;;;;63.80;30.70;;;-4.60;92.00;;;;;;5042669;28;20021;-65
2023/02/10 01:47:40;;;;;;;61.17;31.02;;;-4.50;93.00;;;;;;5044852;28;20021;-65
2023/02/10 01:50:06;;;;;;;65.28;33.00;;;-4.40;92.40;;;;;;5050655;28;20029;-65
2023/02/10 01:52:34;;;;;;;65.60;31.73;;;-4.30;93.90;;;;;;5038792;28;20152;-65
2023/02/10 01:55:08;;;;;;;65.35;33.47;;;-4.30;93.80;;;;;;5043834;28;20037;-65
2023/02/10 01:57:35;;;;;;;67.40;32.88;;;-4.40;94.30;;;;;;5052458;28;20373;-65
2023/02/10 02:00:02;;;;;;;62.67;33.25;;;-4.40;93.40;;;;;;5040637;28;20026;-65
2023/02/10 02:02:28;;;;;;;64.22;31.85;;;-4.50;92.70;;;;;;5045515;28;20029;-65
2023/02/10 02:05:02;;;;;;;57.10;31.50;;;-4.60;93.10;;;;;;5036578;28;20095;-65
2023/02/10 02:07:34;;;;;;;62.72;34.08;;;-4.60;92.20;;;;;;5045847;28;20382;-65
2023/02/10 02:10:03;;;;;;;72.72;34.67;;;-4.60;91.70;;;;;;5055097;28;20303;-65
2023/02/10 02:12:34;;;;;;;62.97;30.77;;;-4.60;92.00;;;;;;5047039;28;20029;-65
2023/02/10 02:15:34;;;;;;;71.45;34.63;;;-4.60;92.30;;;;;;5035769;28;20030;-65
2023/02/10 02:18:15;;;;;;;66.43;32.95;;;-4.50;90.30;;;;;;5037586;28;20108;-64
2023/02/10 02:20:56;;;;;;;70.07;33.75;;;-4.40;90.50;;;;;;5039261;28;20026;-65
2023/02/10 02:23:21;;;;;;;69.72;36.80;;;-4.40;91.60;;;;;;5036818;28;20518;-65
2023/02/10 02:25:59;;;;;;;70.00;34.17;;;-4.30;91.80;;;;;;5041690;28;20045;-65
2023/02/10 02:28:43;;;;;;;68.53;34.10;;;-4.30;91.60;;;;;;5040009;28;20111;-65
2023/02/10 02:31:41;;;;;;;;;;;-4.40;92.20;;;;;;5045909;28;20088;-65
2023/02/10 02:34:14;;;;;;;67.05;33.40;;;-4.50;93.10;;;;;;5029953;28;19909;-65
2023/02/10 02:37:12;;;;;;;67.20;35.13;;;-4.60;92.10;;;;;;5046995;28;20037;-65
2023/02/10 02:39:38;;;;;;;69.72;34.63;;;-4.50;90.80;;;;;;5040536;28;20102;-65
2023/02/10 02:42:14;;;;;;;69.93;34.30;;;-4.50;91.00;;;;;;5043186;28;20055;-65
2023/02/10 02:44:41;;;;;;;71.45;36.17;;;-4.50;92.10;;;;;;5037674;28;20052;-66
2023/02/10 02:47:22;;;;;;;74.53;35.60;;;-4.60;92.00;;;;;;5049752;28;20033;-66
2023/02/10 02:49:59;;;;;;;72.13;34.95;;;-4.70;92.60;;;;;;5038756;28;20021;-65
2023/02/10 02:52:57;;;;;;;72.90;34.88;;;-4.80;91.20;;;;;;5035757;28;20033;-66
2023/02/10 02:55:46;;;;;;;74.78;34.63;;;-4.80;91.10;;;;;;5034340;28;20041;-66
2023/02/10 02:58:20;;;;;;;85.50;38.35;;;-4.90;91.60;;;;;;5039953;28;20032;-65
2023/02/10 03:00:51;;;;;;;79.85;38.08;;;-4.80;90.40;;;;;;5046027;28;20036;-65
2023/02/10 03:03:17;;;;;;;69.05;35.65;;;-4.80;90.20;;;;;;5049161;28;20425;-65
2023/02/10 03:05:43;;;;;;;66.85;33.67;;;-4.70;90.20;;;;;;5042834;28;20033;-65
2023/02/10 03:08:08;;;;;;;65.55;33.90;;;-4.80;90.90;;;;;;5040738;28;20091;-65
2023/02/10 03:10:34;;;;;;;66.60;34.45;;;-4.80;90.90;;;;;;5039184;28;20026;-63
2023/02/10 03:12:59;;;;;;;69.70;35.05;;;-5.10;92.70;;;;;;5046728;28;20025;-64
2023/02/10 03:15:25;;;;;;;73.63;37.20;;;-5.20;92.60;;;;;;5039810;28;20076;-64
2023/02/10 03:17:51;;;;;;;78.05;36.08;;;-5.20;91.20;;;;;;5040911;28;20087;-64
2023/02/10 03:20:17;;;;;;;77.22;37.55;;;-5.20;91.60;;;;;;5039672;28;20492;-65
2023/02/10 03:22:43;;;;;;;74.03;38.20;;;-5.30;92.00;;;;;;5042701;28;20029;-65
2023/02/10 03:25:08;;;;;;;84.85;39.40;;;-5.30;89.50;;;;;;5044979;28;20045;-65
2023/02/10 03:27:34;;;;;;;87.47;42.20;;;-5.10;89.30;;;;;;5053251;28;20029;-65
2023/02/10 03:30:00;;;;;;;75.15;37.50;;;-5.00;87.30;;;;;;5039003;28;20030;-64
2023/02/10 03:32:25;;;;;;;87.50;39.65;;;-4.80;87.80;;;;;;5034729;28;20044;-64
2023/02/10 03:34:51;;;;;;;71.18;36.70;;;-4.80;89.40;;;;;;5035727;28;20083;-64
2023/02/10 03:37:16;;;;;;;75.28;36.63;;;-5.10;91.20;;;;;;5033890;28;20341;-64
2023/02/10 03:39:42;;;;;;;79.95;36.90;;;-5.20;91.20;;;;;;5038067;28;20421;-65
2023/02/10 03:42:08;;;;;;;71.47;35.63;;;-5.30;90.50;;;;;;5033177;28;20037;-65
2023/02/10 03:44:34;;;;;;;69.22;36.45;;;-5.20;89.60;;;;;;5039670;28;20029;-65
2023/02/10 03:46:59;;;;;;;86.65;38.80;;;-5.10;87.90;;;;;;5039218;28;20056;-64
2023/02/10 03:49:25;;;;;;;79.72;37.72;;;-5.10;89.50;;;;;;5047380;28;20036;-65
2023/02/10 03:51:50;;;;;;;77.63;36.33;;;-5.20;90.70;;;;;;5039569;28;20333;-65
2023/02/10 03:54:16;;;;;;;73.35;35.40;;;-5.40;91.00;;;;;;5040230;28;20033;-64
2023/02/10 03:56:41;;;;;;;78.43;36.83;;;-5.40;89.80;;;;;;5044777;28;20033;-65
2023/02/10 03:59:07;;;;;;;69.35;34.83;;;-5.40;89.40;;;;;;5045985;28;20139;-65
2023/02/10 04:01:33;;;;;;;66.68;35.83;;;-5.30;89.00;;;;;;5036167;28;20325;-65
2023/02/10 04:03:59;;;;;;;73.78;36.88;;;-5.40;90.30;;;;;;5043610;28;20056;-64
2023/02/10 04:06:25;;;;;;;84.88;38.22;;;-5.50;90.20;;;;;;5032992;28;20029;-65
2023/02/10 04:08:51;;;;;;;78.63;36.63;;;-5.50;88.90;;;;;;5036886;28;20561;-64
2023/02/10 04:11:17;;;;;;;79.65;38.42;;;-5.40;88.80;;;;;;5042280;28;20025;-64
2023/02/10 04:13:42;;;;;;;75.07;37.88;;;-5.30;87.20;;;;;;5048189;28;20074;-64
2023/02/10 04:16:15;;;;;;;81.68;39.40;;;-5.10;87.00;;;;;;5037358;28;20552;-64
2023/02/10 04:18:44;;;;;;;79.05;39.00;;;-5.10;87.90;;;;;;5038288;28;20475;-64
2023/02/10 04:21:11;;;;;;;82.15;37.60;;;-5.10;87.70;;;;;;5039020;28;20025;-65
2023/02/10 04:23:36;;;;;;;76.10;38.53;;;-5.00;87.20;;;;;;5039288;28;20048;-65
2023/02/10 04:26:02;;;;;;;96.57;39.72;;;-5.00;87.40;;;;;;5042102;28;20049;-64
2023/02/10 04:28:28;;;;;;;351.35;123.65;;;-5.10;88.60;;;;;;5038676;28;20033;-65
2023/02/10 04:30:56;;;;;;;102.95;44.13;;;-5.30;90.40;;;;;;5034471;28;20417;-64
2023/02/10 04:33:22;;;;;;;80.15;36.65;;;-5.50;89.80;;;;;;5048563;28;20029;-65
2023/02/10 04:35:48;;;;;;;69.88;35.08;;;-5.50;89.00;;;;;;5045454;28;20033;-65
2023/02/10 04:38:15;;;;;;;75.25;37.65;;;-5.40;87.60;;;;;;5033048;28;20060;-64
2023/02/10 04:40:42;;;;;;;73.88;36.63;;;-5.30;88.20;;;;;;5038888;28;20472;-64
2023/02/10 04:43:11;;;;;;;70.95;35.78;;;-5.20;87.70;;;;;;5037422;28;20029;-65
2023/02/10 04:45:37;;;;;;;76.90;37.83;;;-5.10;88.10;;;;;;5033074;28;20026;-65
2023/02/10 04:48:03;;;;;;;73.05;35.30;;;-5.10;87.80;;;;;;5039194;28;20029;-64
2023/02/10 04:50:29;;;;;;;70.38;35.03;;;-5.00;88.30;;;;;;5037329;28;20086;-65
2023/02/10 04:52:54;;;;;;;74.45;36.17;;;-5.10;90.20;;;;;;5035975;28;20041;-64
2023/02/10 04:55:22;;;;;;;81.63;37.25;;;-5.30;91.00;;;;;;5036371;28;20033;-65
2023/02/10 04:57:48;;;;;;;68.78;34.13;;;-5.40;91.00;;;;;;5037709;28;20025;-64
2023/02/10 05:00:14;;;;;;;67.95;33.60;;;-5.40;90.40;;;;;;5038433;28;20022;-64
2023/02/10 05:02:43;;;;;;;67.10;34.58;;;-5.30;90.00;;;;;;5034150;28;20594;-65
2023/02/10 05:05:12;;;;;;;72.10;34.13;;;-5.40;90.30;;;;;;5041089;28;20040;-65
2023/02/10 05:07:37;;;;;;;64.30;32.85;;;-5.50;91.10;;;;;;5036352;28;20116;-64
2023/02/10 05:10:04;;;;;;;71.78;34.55;;;-5.50;91.30;;;;;;5040363;28;20041;-65
2023/02/10 05:12:29;;;;;;;63.88;33.67;;;-5.60;90.70;;;;;;5038950;28;20040;-64
2023/02/10 05:14:55;;;;;;;71.22;34.80;;;-5.60;90.80;;;;;;5038627;28;20120;-65
2023/02/10 05:17:20;;;;;;;76.28;37.00;;;-5.60;91.60;;;;;;5040310;28;20056;-65
2023/02/10 05:19:46;;;;;;;70.78;34.80;;;-5.60;91.10;;;;;;5058211;28;20029;-64
2023/02/10 05:22:11;;;;;;;67.25;32.58;;;-5.70;91.60;;;;;;5039822;28;20488;-64
2023/02/10 05:24:37;;;;;;;73.43;35.75;;;-5.70;91.80;;;;;;5049912;28;20428;-64
2023/02/10 05:27:03;;;;;;;62.78;31.33;;;-5.80;92.50;;;;;;5045989;28;20029;-64
2023/02/10 05:29:28;;;;;;;72.50;33.90;;;-5.80;91.70;;;;;;5052883;28;20820;-64
2023/02/10 05:31:54;;;;;;;68.13;32.90;;;-5.90;91.50;;;;;;5046185;28;20052;-64
2023/02/10 05:34:19;;;;;;;66.60;31.58;;;-5.80;91.30;;;;;;5040610;28;20025;-64
2023/02/10 05:36:45;;;;;;;57.25;29.65;;;-5.70;91.00;;;;;;5043012;28;20064;-65
2023/02/10 05:39:23;;;;;;;70.63;32.72;;;-5.60;90.80;;;;;;5042940;28;20072;-66
2023/02/10 05:41:54;;;;;;;61.80;28.90;;;-5.60;91.30;;;;;;5051138;28;20094;-66
2023/02/10 05:44:20;;;;;;;59.08;29.50;;;-5.60;91.60;;;;;;5042521;28;20029;-65
2023/02/10 05:46:45;;;;;;;59.17;30.02;;;-5.50;92.00;;;;;;5037202;28;20034;-65
2023/02/10 05:49:11;;;;;;;65.97;32.08;;;-5.60;92.70;;;;;;5039642;28;20109;-65
2023/02/10 05:51:39;;;;;;;73.20;33.88;;;-5.60;92.60;;;;;;5053853;28;20029;-64
2023/02/10 05:54:05;;;;;;;65.65;33.55;;;-5.70;92.70;;;;;;5051227;28;20044;-64
2023/02/10 05:56:30;;;;;;;66.47;31.05;;;-5.60;92.10;;;;;;5044862;28;20025;-64
2023/02/10 05:58:56;;;;;;;75.38;38.00;;;-5.60;93.00;;;;;;5038776;28;20025;-64
2023/02/10 06:01:22;;;;;;;66.63;34.28;;;-5.80;93.40;;;;;;5038627;28;20326;-64
2023/02/10 06:03:47;;;;;;;69.95;36.92;;;-5.90;92.40;;;;;;5041420;28;20159;-64
2023/02/10 06:06:13;;;;;;;76.78;38.65;;;-5.80;91.50;;;;;;5046757;28;20114;-64
2023/02/10 06:08:39;;;;;;;71.95;36.92;;;-5.70;91.50;;;;;;5038372;28;20052;-64
2023/02/10 06:11:04;;;;;;;74.85;39.05;;;-5.60;91.80;;;;;;5037951;28;20420;-65
2023/02/10 06:13:30;;;;;;;70.13;34.10;;;-5.70;92.40;;;;;;5039290;28;20382;-65
2023/02/10 06:15:55;;;;;;;68.65;35.35;;;-5.60;92.30;;;;;;5037719;28;20035;-65
2023/02/10 06:18:21;;;;;;;69.72;34.67;;;-5.70;92.50;;;;;;5036936;28;20041;-64
2023/02/10 06:20:53;;;;;;;72.97;34.33;;;-5.80;92.80;;;;;;5040515;28;20083;-65
2023/02/10 06:23:20;;;;;;;71.18;34.20;;;-5.80;92.80;;;;;;5035759;28;20111;-65
2023/02/10 06:25:46;;;;;;;67.88;33.35;;;-5.80;93.10;;;;;;5042767;28;20038;-65
2023/02/10 06:28:12;;;;;;;81.32;38.92;;;-5.80;92.40;;;;;;5039557;28;20151;-65
2023/02/10 06:30:38;;;;;;;80.00;39.53;;;-5.70;91.90;;;;;;5038073;28;20068;-64
2023/02/10 06:33:04;;;;;;;78.45;37.97;;;-5.70;91.80;;;;;;5049527;28;20516;-64
2023/02/10 06:35:29;;;;;;;73.50;35.22;;;-5.70;92.20;;;;;;5049842;28;20029;-64
2023/02/10 06:37:55;;;;;;;74.63;35.10;;;-5.60;92.90;;;;;;5038700;28;20052;-64
2023/02/10 06:40:20;;;;;;;70.28;35.90;;;-5.60;93.00;;;;;;5044239;28;20315;-64
2023/02/10 06:42:47;;;;;;;79.57;36.70;;;-5.60;93.00;;;;;;5036746;28;20033;-64
2023/02/10 06:45:13;;;;;;;76.22;36.75;;;-5.50;92.50;;;;;;5048940;28;20056;-65
2023/02/10 06:47:38;;;;;;;79.25;39.03;;;-5.50;93.10;;;;;;5040474;28;20064;-65
2023/02/10 06:50:04;;;;;;;72.63;35.10;;;-5.50;93.60;;;;;;5046703;28;20121;-64
2023/02/10 06:52:31;;;;;;;66.35;32.58;;;-5.60;92.90;;;;;;5046556;28;20041;-64
2023/02/10 06:54:57;;;;;;;72.93;38.05;;;-5.50;93.50;;;;;;5035996;28;20112;-65
2023/02/10 06:57:22;;;;;;;75.15;36.20;;;-5.50;93.50;;;;;;5044769;28;20116;-64
2023/02/10 06:59:48;;;;;;;76.22;35.00;;;-5.50;93.20;;;;;;5033635;28;20069;-64
2023/02/10 07:02:13;;;;;;;74.85;37.70;;;-5.40;92.90;;;;;;5040415;28;20052;-64
2023/02/10 07:04:39;;;;;;;75.85;38.08;;;-5.20;92.50;;;;;;5052051;28;20033;-64
2023/02/10 07:07:05;;;;;;;72.13;36.58;;;-5.10;93.50;;;;;;5038538;28;20039;-64
2023/02/10 07:09:31;;;;;;;68.65;34.45;;;-5.10;94.00;;;;;;5036287;28;20052;-64
2023/02/10 07:11:59;;;;;;;65.07;31.58;;;-5.00;93.30;;;;;;5038455;28;20361;-64
2023/02/10 07:14:25;;;;;;;66.32;32.78;;;-4.90;93.10;;;;;;5038433;28;20329;-64
2023/02/10 07:16:53;;;;;;;67.05;32.55;;;-4.80;94.20;;;;;;5043411;28;20040;-65
2023/02/10 07:19:19;;;;;;;67.20;33.22;;;-4.80;95.30;;;;;;5042059;28;20033;-64
2023/02/10 07:21:45;;;;;;;65.28;32.50;;;-4.90;95.30;;;;;;5043403;28;20029;-65
2023/02/10 07:24:10;;;;;;;68.47;31.90;;;-4.80;94.80;;;;;;5039494;28;20025;-64
2023/02/10 07:26:36;;;;;;;64.60;31.38;;;-4.70;94.90;;;;;;5036317;28;20058;-64
2023/02/10 07:29:02;;;;;;;65.97;30.45;;;-4.60;95.30;;;;;;5048603;28;20447;-64
2023/02/10 07:31:27;;;;;;;62.70;31.33;;;-4.40;95.70;;;;;;5042343;28;20033;-64
2023/02/10 07:33:53;;;;;;;66.75;31.20;;;-4.40;96.20;;;;;;5038084;28;20040;-64
2023/02/10 07:36:18;;;;;;;64.47;32.17;;;-4.30;96.50;;;;;;5055532;28;20409;-64
2023/02/10 07:38:44;;;;;;;72.10;36.17;;;-4.30;96.70;;;;;;5050235;28;20040;-65
2023/02/10 07:41:09;;;;;;;71.55;35.65;;;-4.20;96.80;;;;;;5046852;28;20052;-64
2023/02/10 07:43:35;;;;;;;71.55;38.95;;;-4.00;97.30;;;;;;5035723;28;20296;-64
2023/02/10 07:46:01;;;;;;;65.65;35.60;;;-3.80;98.00;;;;;;5035671;28;20091;-64
2023/02/10 07:48:27;;;;;;;67.85;36.25;;;-3.80;98.00;;;;;;5053044;28;20360;-64
2023/02/10 07:50:53;;;;;;;66.80;35.10;;;-3.60;98.00;;;;;;5040353;28;20067;-65
2023/02/10 07:53:20;;;;;;;60.78;31.30;;;-3.50;98.00;;;;;;5055779;28;20025;-65
2023/02/10 07:55:46;;;;;;;54.83;29.40;;;-3.50;98.00;;;;;;5054708;28;20033;-64
2023/02/10 07:58:12;;;;;;;60.55;30.13;;;-3.50;98.00;;;;;;5055233;28;20043;-65
2023/02/10 08:00:41;;;;;;;62.50;32.17;;;-3.30;98.00;;;;;;5049986;28;20225;-64
2023/02/10 08:03:08;;;;;;;56.60;29.70;;;-3.20;98.00;;;;;;5038642;28;20021;-64
2023/02/10 08:05:35;;;;;;;55.85;30.70;;;-3.20;98.00;;;;;;5041527;28;20056;-65
2023/02/10 08:08:01;;;;;;;53.03;29.33;;;-3.10;98.00;;;;;;5041247;28;20034;-64
2023/02/10 08:10:26;;;;;;;58.08;30.58;;;-2.80;98.00;;;;;;5038125;28;20456;-64
2023/02/10 08:12:52;;;;;;;54.67;27.75;;;-2.60;98.00;;;;;;5035887;28;20033;-64
2023/02/10 08:15:18;;;;;;;56.40;29.00;;;-2.30;98.00;;;;;;5034648;28;20508;-65
2023/02/10 08:17:44;;;;;;;51.85;28.05;;;-2.40;98.00;;;;;;5047679;28;20407;-64
2023/02/10 08:20:10;;;;;;;58.67;31.27;;;-2.10;98.00;;;;;;5047356;28;20313;-65
2023/02/10 08:22:36;;;;;;;67.70;44.47;;;-1.00;98.00;;;;;;5053255;28;20028;-65
2023/02/10 08:25:02;;;;;;;64.43;43.22;;;0.40;98.00;;;;;;5053888;28;20083;-65
2023/02/10 08:27:28;;;;;;;50.90;30.58;;;1.50;98.00;;;;;;5037261;28;20080;-65
2023/02/10 08:29:54;;;;;;;50.03;29.50;;;1.70;95.20;;;;;;5039181;28;20352;-64
2023/02/10 08:32:21;;;;;;;50.28;26.98;;;1.30;93.10;;;;;;5056774;28;20026;-65
2023/02/10 08:34:50;;;;;;;54.15;30.42;;;0.80;93.80;;;;;;5035378;28;20036;-65
2023/02/10 08:37:17;;;;;;;55.67;30.67;;;0.40;95.10;;;;;;5035221;28;20052;-64
2023/02/10 08:39:43;;;;;;;52.72;30.77;;;0.00;95.60;;;;;;5042168;28;20366;-65
2023/02/10 08:42:08;;;;;;;53.03;30.15;;;-0.10;97.00;;;;;;5035692;28;20025;-65
2023/02/10 08:44:34;;;;;;;49.13;28.55;;;-0.20;97.60;;;;;;5035685;28;20079;-65
2023/02/10 08:47:00;;;;;;;47.55;27.98;;;-0.10;98.00;;;;;;5049536;28;20037;-64
2023/02/10 08:49:27;;;;;;;48.30;26.80;;;0.10;98.00;;;;;;5043582;28;20091;-65
2023/02/10 08:51:52;;;;;;;42.13;24.20;;;1.10;98.00;;;;;;5048061;28;20034;-64
2023/02/10 08:54:21;;;;;;;40.97;25.17;;;2.30;96.20;;;;;;5041977;28;20033;-64
2023/02/10 08:56:47;;;;;;;38.47;24.20;;;3.50;95.80;;;;;;5035321;28;20060;-64
2023/02/10 08:59:13;;;;;;;37.38;23.33;;;5.10;92.90;;;;;;5038144;28;20025;-65
2023/02/10 09:01:39;;;;;;;39.42;23.20;;;6.30;90.60;;;;;;5054969;28;20090;-62
2023/02/10 09:04:04;;;;;;;36.72;22.33;;;7.50;88.30;;;;;;5037245;28;20029;-66
2023/02/10 09:06:38;;;;;;;37.20;22.95;;;8.50;84.20;;;;;;5035648;28;20405;-65
2023/02/10 09:09:06;;;;;;;39.15;22.60;;;8.40;78.20;;;;;;5036717;28;20037;-65
2023/02/10 09:11:32;;;;;;;75.38;41.38;;;8.10;77.50;;;;;;5041980;28;20118;-64
2023/02/10 09:13:58;;;;;;;48.85;33.33;;;8.60;77.30;;;;;;5040996;28;20497;-64
2023/02/10 09:16:23;;;;;;;40.20;26.40;;;9.10;74.80;;;;;;5037623;28;20064;-64
2023/02/10 09:18:49;;;;;;;34.38;23.10;;;10.10;73.20;;;;;;5040582;28;20022;-64
2023/02/10 09:21:15;;;;;;;33.00;22.13;;;10.10;70.90;;;;;;5037771;28;20022;-64
2023/02/10 09:23:40;;;;;;;34.60;21.88;;;11.20;69.90;;;;;;5050889;28;20075;-64
2023/02/10 09:26:06;;;;;;;31.00;20.77;;;12.20;66.70;;;;;;5046640;28;20037;-64
2023/02/10 09:28:31;;;;;;;34.80;22.80;;;13.20;63.30;;;;;;5038680;28;20021;-64
2023/02/10 09:30:57;;;;;;;34.22;23.20;;;12.80;59.60;;;;;;5034991;28;20033;-64
2023/02/10 09:33:23;;;;;;;35.05;22.63;;;11.80;60.60;;;;;;5035862;28;20025;-64
2023/02/10 09:35:51;;;;;;;34.85;23.45;;;11.70;62.20;;;;;;5034311;28;20021;-64
2023/02/10 09:38:17;;;;;;;38.40;24.63;;;11.40;62.00;;;;;;5032123;28;20175;-64
2023/02/10 09:41:04;;;;;;;35.70;22.83;;;11.20;61.80;;;;;;5034907;28;20100;-64
2023/02/10 09:43:54;;;;;;;40.33;26.77;;;11.30;62.20;;;;;;5033058;28;20532;-66
2023/02/10 09:46:58;;;;;;;44.13;27.85;;;11.10;61.50;;;;;;5032447;28;20045;-63
2023/02/10 09:49:33;;;;;;;39.05;24.45;;;10.60;60.30;;;;;;5023262;28;20091;-64
2023/02/10 09:52:12;;;;;;;35.55;22.70;;;10.30;60.30;;;;;;5033190;28;20762;-64
2023/02/10 09:54:39;;;;;;;33.92;21.80;;;10.10;59.10;;;;;;5032832;28;20037;-64
2023/02/10 09:57:15;;;;;;;40.50;23.70;;;10.50;59.50;;;;;;5032877;28;20036;-64
2023/02/10 09:59:43;;;;;;;41.00;25.25;;;10.40;59.60;;;;;;5033033;28;20450;-64
2023/02/10 10:02:21;;;;;;;39.92;25.20;;;9.70;59.80;;;;;;5034909;28;20021;-64
2023/02/10 10:04:46;;;;;;;39.78;24.90;;;8.50;62.80;;;;;;5050855;28;20033;-63
2023/02/10 10:07:30;;;;;;;41.03;23.90;;;8.20;64.70;;;;;;5049073;28;20033;-63
2023/02/10 10:10:30;;;;;;;42.40;26.37;;;8.30;64.60;;;;;;5043942;28;20037;-64
2023/02/10 10:12:56;;;;;;;42.55;26.02;;;8.40;65.10;;;;;;5048275;28;20053;-64
2023/02/10 10:15:26;;;;;;;40.63;25.90;;;7.70;66.70;;;;;;5038058;28;20033;-64
2023/02/10 10:18:04;;;;;;;42.40;26.52;;;7.40;67.70;;;;;;5037527;28;20328;-64
2023/02/10 10:20:43;;;;;;;43.13;27.17;;;7.30;68.40;;;;;;5038595;28;20017;-64
2023/02/10 10:23:30;;;;;;;45.70;27.58;;;7.20;68.90;;;;;;5048623;28;20036;-64
2023/02/10 10:26:31;;;;;;;45.65;26.73;;;7.20;69.40;;;;;;5048837;28;20507;-64
2023/02/10 10:29:20;;;;;;;45.60;27.20;;;7.40;69.20;;;;;;5048090;28;20030;-64
2023/02/10 10:31:48;;;;;;;45.47;28.77;;;7.30;69.70;;;;;;5048258;28;20372;-64
2023/02/10 10:34:17;;;;;;;42.15;27.08;;;7.90;69.10;;;;;;5053143;28;20021;-63
2023/02/10 10:36:53;;;;;;;41.65;26.55;;;8.10;69.60;;;;;;5053537;28;20430;-64
2023/02/10 10:39:24;;;;;;;44.80;26.67;;;8.60;68.30;;;;;;5047039;28;20040;-64
2023/02/10 10:41:50;;;;;;;42.10;27.67;;;8.30;67.90;;;;;;5038815;28;20037;-64
2023/02/10 10:44:17;;;;;;;45.13;28.25;;;8.30;68.80;;;;;;5049295;28;20460;-63
2023/02/10 10:46:56;;;;;;;46.88;30.52;;;7.60;68.90;;;;;;5048083;28;20029;-64
2023/02/10 10:49:22;;;;;;;44.10;28.35;;;6.80;70.80;;;;;;5037595;28;20108;-64
2023/02/10 10:51:48;;;;;;;47.45;28.98;;;6.50;72.50;;;;;;5037272;28;20374;-64
2023/02/10 10:54:21;;;;;;;48.50;28.50;;;6.80;73.10;;;;;;5037833;28;20067;-63
2023/02/10 10:56:52;;;;;;;43.13;27.15;;;7.00;72.00;;;;;;5054176;28;20033;-63
2023/02/10 10:59:41;;;;;;;40.83;25.60;;;7.50;71.60;;;;;;5048441;28;20021;-63
2023/02/10 11:02:16;;;;;;;40.95;25.23;;;8.10;69.20;;;;;;5046408;28;20025;-63
2023/02/10 11:04:44;;;;;;;39.53;26.63;;;8.60;67.10;;;;;;5047853;28;20025;-63
2023/02/10 11:07:19;;;;;;;45.40;29.58;;;8.50;67.80;;;;;;5048530;28;20032;-63
2023/02/10 11:09:51;;;;;;;40.58;26.35;;;8.40;68.40;;;;;;5057352;28;20044;-64
2023/02/10 11:12:34;;;;;;;46.88;27.25;;;8.50;66.70;;;;;;5050927;28;20044;-64
2023/02/10 11:15:01;;;;;;;41.03;26.25;;;8.70;66.00;;;;;;5042109;28;20108;-64
2023/02/10 11:17:41;;;;;;;34.65;22.85;;;8.40;67.60;;;;;;5046475;28;20317;-64
2023/02/10 11:20:13;;;;;;;36.38;23.80;;;8.50;65.00;;;;;;5047848;28;20029;-64
2023/02/10 11:22:42;;;;;;;34.33;22.20;;;8.70;63.90;;;;;;5040660;28;20030;-64
2023/02/10 11:25:25;;;;;;;36.83;24.23;;;9.00;63.70;;;;;;5049941;28;21464;-64
2023/02/10 11:27:55;;;;;;;34.13;23.00;;;8.40;63.20;;;;;;5040175;28;20029;-64
2023/02/10 11:30:28;;;;;;;40.47;23.90;;;8.30;65.60;;;;;;5043429;28;20024;-64
2023/02/10 11:32:54;;;;;;;36.95;22.63;;;8.60;65.10;;;;;;5043964;28;20453;-64
2023/02/10 11:35:20;;;;;;;37.38;21.85;;;8.70;63.70;;;;;;5050547;28;20044;-65
2023/02/10 11:37:55;;;;;;;33.38;21.83;;;8.60;63.70;;;;;;5038784;28;20029;-64
2023/02/10 11:40:24;;;;;;;37.65;23.33;;;9.00;62.20;;;;;;5037044;28;20024;-64
2023/02/10 11:42:56;;;;;;;40.15;26.08;;;9.70;62.20;;;;;;5048790;28;20437;-64
2023/02/10 11:45:32;;;;;;;38.63;25.85;;;9.10;63.50;;;;;;5034495;28;20026;-65
2023/02/10 11:48:12;;;;;;;46.35;27.10;;;8.70;65.30;;;;;;5034818;28;20030;-64
2023/02/10 11:50:38;;;;;;;41.20;23.88;;;8.80;66.00;;;;;;5037352;28;20479;-64
2023/02/10 11:53:04;;;;;;;46.00;27.90;;;8.90;65.90;;;;;;5036314;28;20037;-64
2023/02/10 11:55:45;;;;;;;43.53;28.23;;;9.10;65.60;;;;;;5036745;28;20041;-64
2023/02/10 11:59:04;;;;;;;43.88;27.98;;;8.60;65.90;;;;;;5051663;28;20430;-64
2023/02/10 12:01:39;;;;;;;41.80;25.95;;;8.70;68.40;;;;;;5041697;28;20039;-66
2023/02/10 12:04:26;;;;;;;39.15;24.63;;;8.80;67.00;;;;;;5039406;28;20025;-66
2023/02/10 12:07:06;;;;;;;48.67;35.33;;;8.50;65.90;;;;;;5036824;28;20025;-66
2023/02/10 12:09:55;;;;;;;40.75;26.42;;;8.30;66.70;;;;;;5053879;28;20397;-66
2023/02/10 12:12:35;;;;;;;52.60;36.20;;;8.50;66.20;;;;;;5054794;28;20437;-66
2023/02/10 12:15:27;;;;;;;39.97;27.88;;;8.50;67.20;;;;;;5055040;28;20033;-67
2023/02/10 12:18:11;;;;;;;43.15;25.35;;;8.30;65.80;;;;;;5044126;28;20052;-66
2023/02/10 12:20:44;;;;;;;42.05;26.35;;;8.40;65.80;;;;;;5055112;28;20024;-67
2023/02/10 12:23:56;;;;;;;43.13;28.50;;;8.10;67.50;;;;;;5055247;28;20029;-67
2023/02/10 12:26:41;;;;;;;40.60;26.60;;;7.90;65.70;;;;;;5045387;28;20453;-67
2023/02/10 12:29:24;;;;;;;43.50;26.75;;;7.70;66.60;;;;;;5036068;28;20442;-67
2023/02/10 12:31:56;;;;;;;40.13;26.13;;;7.50;67.30;;;;;;5035367;28;20033;-67
2023/02/10 12:34:50;;;;;;;37.72;23.48;;;7.90;66.90;;;;;;5048483;28;20284;-67
2023/02/10 12:37:50;;;;;;;41.35;26.15;;;8.40;65.00;;;;;;5050571;28;20029;-68
2023/02/10 12:40:35;;;;;;;46.58;30.67;;;9.00;65.10;;;;;;5048520;28;20021;-68
2023/02/10 12:43:45;;;;;;;41.33;27.00;;;8.60;65.50;;;;;;5034911;28;20025;-67
2023/02/10 12:46:48;;;;;;;44.13;26.73;;;7.70;67.00;;;;;;5031242;28;20049;-68